Time;durP1;ratioP1;P1;durP2;ratioP2;P2;SDS_P1;SDS_P2;PMS_P1;PMS_P2;Temp;Humidity;BMP_temperature;BMP_pressure;BME280_temperature;BME280_humidity;BME280_pressure;Samples;Min_cycle;Max_cycle;Signal;HPM_P1;HPM_P2
2024/04/17 00:01:34;;;;;;;9.02;3.80;;;9.50;99.90;;;;;;5448523;26;20276;-73
2024/04/17 00:04:00;;;;;;;6.75;3.80;;;9.50;99.90;;;;;;5441036;26;20285;-73
2024/04/17 00:06:26;;;;;;;7.65;3.45;;;9.50;99.90;;;;;;5436803;26;20226;-73
2024/04/17 00:08:53;;;;;;;8.30;4.13;;;9.50;99.90;;;;;;5454355;26;20240;-73
2024/04/17 00:11:20;;;;;;;11.40;2.65;;;9.50;99.90;;;;;;5449463;26;20281;-73
2024/04/17 00:13:46;;;;;;;12.80;3.75;;;9.50;99.90;;;;;;5449486;26;20298;-73
2024/04/17 00:16:13;;;;;;;12.68;3.55;;;9.50;99.90;;;;;;5449581;26;20265;-73
2024/04/17 00:18:39;;;;;;;8.30;2.70;;;9.50;99.90;;;;;;5434812;26;20281;-73
2024/04/17 00:21:05;;;;;;;5.90;2.35;;;9.40;99.90;;;;;;5447985;26;20248;-73
2024/04/17 00:23:31;;;;;;;9.25;3.00;;;9.40;99.90;;;;;;5417145;26;20298;-73
2024/04/17 00:25:57;;;;;;;11.52;3.65;;;9.40;99.90;;;;;;5417866;26;20244;-73
2024/04/17 00:28:25;;;;;;;7.35;2.72;;;9.40;99.90;;;;;;5447833;26;20282;-73
2024/04/17 00:30:51;;;;;;;9.15;2.20;;;9.30;99.90;;;;;;5447949;26;20277;-73
2024/04/17 00:33:17;;;;;;;10.13;2.30;;;9.30;99.90;;;;;;5449094;26;20625;-73
2024/04/17 00:35:43;;;;;;;3.45;1.70;;;9.30;99.90;;;;;;5447444;26;20257;-73
2024/04/17 00:38:09;;;;;;;7.28;2.25;;;9.20;99.90;;;;;;5447769;26;20256;-73
2024/04/17 00:40:35;;;;;;;8.85;2.08;;;9.20;99.90;;;;;;5447570;26;20261;-73
2024/04/17 00:43:02;;;;;;;7.15;1.45;;;9.10;99.90;;;;;;5441076;26;20241;-73
2024/04/17 00:45:33;;;;;;;4.45;1.83;;;9.10;99.90;;;;;;5431232;26;20277;-72
2024/04/17 00:48:00;;;;;;;6.10;2.03;;;9.00;99.90;;;;;;5441414;26;20270;-72
2024/04/17 00:50:27;;;;;;;10.80;1.90;;;9.00;99.90;;;;;;5443420;26;20255;-73
2024/04/17 00:52:55;;;;;;;8.77;3.00;;;8.90;99.90;;;;;;5446906;26;20262;-73
2024/04/17 00:55:22;;;;;;;10.93;2.40;;;8.80;99.90;;;;;;5447455;26;20316;-73
2024/04/17 00:57:49;;;;;;;6.63;1.75;;;8.70;99.90;;;;;;5449094;26;20755;-73
2024/04/17 01:00:15;;;;;;;6.13;2.30;;;8.70;99.90;;;;;;5449336;26;20226;-73
2024/04/17 01:02:41;;;;;;;10.65;2.55;;;8.60;99.90;;;;;;5417360;26;20238;-73
2024/04/17 01:05:07;;;;;;;9.45;1.75;;;8.50;99.90;;;;;;5433321;26;20886;-73
2024/04/17 01:07:33;;;;;;;5.90;3.25;;;8.50;99.90;;;;;;5447797;26;20226;-72
2024/04/17 01:09:59;;;;;;;6.35;1.88;;;8.40;99.90;;;;;;5478989;26;20315;-72
2024/04/17 01:12:26;;;;;;;10.07;2.58;;;8.40;99.90;;;;;;5453610;26;20664;-73
2024/04/17 01:14:52;;;;;;;13.02;1.85;;;8.30;99.90;;;;;;5453005;26;20689;-73
2024/04/17 01:17:18;;;;;;;11.20;3.47;;;8.20;99.90;;;;;;5441334;26;20265;-74
2024/04/17 01:19:45;;;;;;;7.53;2.15;;;8.20;99.90;;;;;;5449553;26;20598;-73
2024/04/17 01:22:11;;;;;;;7.38;1.88;;;8.10;99.90;;;;;;5414559;26;20223;-73
2024/04/17 01:24:37;;;;;;;7.50;2.17;;;8.10;99.90;;;;;;5441750;26;20270;-73
2024/04/17 01:27:03;;;;;;;5.32;1.55;;;8.00;99.90;;;;;;5462968;26;20563;-73
2024/04/17 01:29:29;;;;;;;7.43;2.65;;;8.00;99.90;;;;;;5449936;26;20221;-73
2024/04/17 01:31:55;;;;;;;4.20;1.90;;;7.90;99.90;;;;;;5449731;26;20269;-73
2024/04/17 01:34:21;;;;;;;13.27;2.67;;;7.90;99.90;;;;;;5446030;26;20351;-73
2024/04/17 01:36:48;;;;;;;5.63;2.13;;;7.90;99.90;;;;;;5451943;26;20267;-73
2024/04/17 01:39:14;;;;;;;6.22;1.67;;;7.80;99.90;;;;;;5437187;26;20297;-73
2024/04/17 01:41:40;;;;;;;7.30;2.75;;;7.80;99.90;;;;;;5453850;26;20272;-74
2024/04/17 01:44:06;;;;;;;6.97;2.35;;;7.80;99.90;;;;;;5451260;26;20772;-74
2024/04/17 01:46:32;;;;;;;3.70;1.88;;;7.70;99.90;;;;;;5453422;26;20230;-74
2024/04/17 01:48:58;;;;;;;10.18;2.42;;;7.70;99.90;;;;;;5422029;26;20269;-74
2024/04/17 01:51:24;;;;;;;7.63;2.30;;;7.70;99.90;;;;;;5450903;26;20740;-74
2024/04/17 01:53:50;;;;;;;4.70;2.08;;;7.60;99.90;;;;;;5449383;26;20285;-73
2024/04/17 01:56:16;;;;;;;19.77;3.75;;;7.60;99.90;;;;;;5452699;26;20268;-73
2024/04/17 01:58:42;;;;;;;7.38;1.80;;;7.60;99.90;;;;;;5440745;26;20252;-73
2024/04/17 02:01:08;;;;;;;4.70;2.20;;;7.50;99.90;;;;;;5426209;26;20320;-74
2024/04/17 02:03:36;;;;;;;6.10;2.05;;;7.50;99.90;;;;;;5424754;26;20249;-74
2024/04/17 02:06:02;;;;;;;7.03;1.83;;;7.50;99.90;;;;;;5447399;26;20237;-74
2024/04/17 02:08:28;;;;;;;9.70;2.20;;;7.50;99.90;;;;;;5448081;26;20281;-74
2024/04/17 02:10:54;;;;;;;7.00;2.28;;;7.40;99.90;;;;;;5444261;26;20253;-74
2024/04/17 02:13:21;;;;;;;6.30;1.80;;;7.40;99.90;;;;;;5447346;26;20574;-74
2024/04/17 02:15:47;;;;;;;8.70;2.20;;;7.40;99.90;;;;;;5450967;26;20297;-74
2024/04/17 02:18:13;;;;;;;4.13;1.63;;;7.40;99.90;;;;;;5449912;26;20226;-74
2024/04/17 02:20:39;;;;;;;9.98;2.22;;;7.30;99.90;;;;;;5449509;26;20723;-74
2024/04/17 02:23:05;;;;;;;9.77;2.03;;;7.30;99.90;;;;;;5450690;26;20226;-74
2024/04/17 02:25:31;;;;;;;5.63;1.52;;;7.30;99.90;;;;;;5410820;26;20303;-74
2024/04/17 02:27:57;;;;;;;6.43;1.80;;;7.20;99.90;;;;;;5430922;26;20753;-74
2024/04/17 02:30:23;;;;;;;7.30;1.73;;;7.20;99.90;;;;;;5443776;26;20222;-73
2024/04/17 02:32:51;;;;;;;5.72;2.15;;;7.20;99.90;;;;;;5467732;26;20294;-73
2024/04/17 02:35:17;;;;;;;4.95;2.38;;;7.20;99.90;;;;;;5449757;26;20894;-74
2024/04/17 02:37:43;;;;;;;8.93;2.70;;;7.10;99.90;;;;;;5441605;26;20281;-74
2024/04/17 02:40:10;;;;;;;6.38;1.80;;;7.10;99.90;;;;;;5449293;26;20303;-74
2024/04/17 02:42:36;;;;;;;10.77;1.73;;;7.10;99.90;;;;;;5444798;26;20221;-74
2024/04/17 02:45:02;;;;;;;5.43;2.15;;;7.10;99.90;;;;;;5412812;26;20234;-74
2024/04/17 02:47:28;;;;;;;6.47;1.85;;;7.00;99.90;;;;;;5452686;26;20222;-74
2024/04/17 02:49:54;;;;;;;7.55;2.08;;;7.10;99.90;;;;;;5451161;26;20740;-74
2024/04/17 02:52:21;;;;;;;9.55;2.30;;;7.00;99.90;;;;;;5457555;26;20233;-74
2024/04/17 02:54:47;;;;;;;10.30;2.30;;;7.00;99.90;;;;;;5448626;26;20810;-74
2024/04/17 02:57:13;;;;;;;4.00;2.47;;;7.00;99.90;;;;;;5450816;26;20252;-74
2024/04/17 02:59:39;;;;;;;7.38;1.90;;;6.90;99.90;;;;;;5426189;26;20282;-74
2024/04/17 03:02:05;;;;;;;4.05;1.85;;;6.90;99.90;;;;;;5489397;26;20229;-74
2024/04/17 03:04:31;;;;;;;11.38;2.70;;;6.90;99.90;;;;;;5458822;26;20273;-74
2024/04/17 03:06:57;;;;;;;9.35;2.53;;;6.90;99.90;;;;;;5448868;26;20249;-74
2024/04/17 03:09:23;;;;;;;4.50;1.63;;;6.80;99.90;;;;;;5448800;26;20242;-74
2024/04/17 03:11:49;;;;;;;6.70;1.75;;;6.80;99.90;;;;;;5435950;26;20634;-73
2024/04/17 03:14:15;;;;;;;10.93;3.47;;;6.80;99.90;;;;;;5462975;26;20281;-73
2024/04/17 03:16:41;;;;;;;9.90;2.08;;;6.80;99.90;;;;;;5448868;26;20747;-74
2024/04/17 03:19:08;;;;;;;8.23;2.00;;;6.80;99.90;;;;;;5435807;26;20265;-73
2024/04/17 03:21:34;;;;;;;13.38;3.40;;;6.70;99.90;;;;;;5442712;26;20234;-74
2024/04/17 03:24:00;;;;;;;9.15;3.13;;;6.70;99.90;;;;;;5438042;26;20273;-73
2024/04/17 03:26:27;;;;;;;5.28;2.50;;;6.70;99.90;;;;;;5478889;26;20273;-73
2024/04/17 03:28:53;;;;;;;5.15;2.70;;;6.60;99.90;;;;;;5450356;26;20230;-73
2024/04/17 03:31:20;;;;;;;6.57;3.60;;;6.60;99.90;;;;;;5464009;26;20336;-74
2024/04/17 03:33:46;;;;;;;7.25;2.63;;;6.60;99.90;;;;;;5437772;26;20229;-73
2024/04/17 03:36:13;;;;;;;5.20;2.47;;;6.60;99.90;;;;;;5438732;26;20305;-73
2024/04/17 03:38:39;;;;;;;8.20;2.67;;;6.60;99.90;;;;;;5448302;26;20305;-73
2024/04/17 03:41:05;;;;;;;8.82;2.95;;;6.60;99.90;;;;;;5434790;26;20322;-73
2024/04/17 03:43:31;;;;;;;6.00;2.17;;;6.60;99.90;;;;;;5449851;26;20719;-73
2024/04/17 03:45:57;;;;;;;8.68;3.08;;;6.50;99.90;;;;;;5446346;26;20271;-73
2024/04/17 03:48:23;;;;;;;7.15;3.72;;;6.50;99.90;;;;;;5478999;26;20225;-73
2024/04/17 03:50:49;;;;;;;7.18;2.60;;;6.50;99.90;;;;;;5457811;26;20277;-73
2024/04/17 03:53:15;;;;;;;6.97;2.85;;;6.50;99.90;;;;;;5450056;26;20284;-73
2024/04/17 03:55:41;;;;;;;8.82;2.75;;;6.40;99.90;;;;;;5449773;26;20272;-73
2024/04/17 03:58:07;;;;;;;9.65;4.18;;;6.50;99.90;;;;;;5450150;26;20322;-73
2024/04/17 04:00:33;;;;;;;5.63;3.17;;;6.40;99.90;;;;;;5448425;26;20233;-73
2024/04/17 04:02:59;;;;;;;5.65;3.40;;;6.40;99.90;;;;;;5447518;26;20273;-73
2024/04/17 04:05:25;;;;;;;12.05;3.08;;;6.40;99.90;;;;;;5449445;26;20230;-73
2024/04/17 04:07:52;;;;;;;7.50;3.20;;;6.40;99.90;;;;;;5449631;26;20281;-73
2024/04/17 04:10:18;;;;;;;9.55;3.35;;;6.40;99.90;;;;;;5441975;26;20254;-73
2024/04/17 04:12:44;;;;;;;9.10;2.72;;;6.40;99.90;;;;;;5443205;26;20747;-73
2024/04/17 04:15:10;;;;;;;12.48;3.20;;;6.40;99.90;;;;;;5441307;26;20273;-73
2024/04/17 04:17:36;;;;;;;11.63;3.20;;;6.40;99.90;;;;;;5442986;26;20396;-73
2024/04/17 04:20:03;;;;;;;9.13;3.40;;;6.40;99.90;;;;;;5463962;26;20226;-74
2024/04/17 04:22:29;;;;;;;12.85;3.30;;;6.40;99.90;;;;;;5446493;26;20261;-74
2024/04/17 04:24:55;;;;;;;9.40;2.90;;;6.40;99.90;;;;;;5479130;26;20237;-74
2024/04/17 04:27:21;;;;;;;4.22;2.50;;;6.50;99.90;;;;;;5449723;26;20780;-74
2024/04/17 04:29:47;;;;;;;3.75;2.72;;;6.40;99.90;;;;;;5449117;26;20276;-74
2024/04/17 04:32:13;;;;;;;5.90;2.95;;;6.40;99.90;;;;;;5441903;26;20286;-73
2024/04/17 04:34:39;;;;;;;6.05;2.88;;;6.40;99.90;;;;;;5446320;26;20236;-73
2024/04/17 04:37:05;;;;;;;5.68;3.08;;;6.50;99.90;;;;;;5449322;26;20281;-73
2024/04/17 04:39:31;;;;;;;9.15;2.50;;;6.40;99.90;;;;;;5457105;26;20582;-73
2024/04/17 04:41:57;;;;;;;6.50;3.15;;;6.50;99.90;;;;;;5429797;26;20286;-73
2024/04/17 04:44:23;;;;;;;10.45;2.65;;;6.50;99.90;;;;;;5448136;26;20570;-73
2024/04/17 04:46:51;;;;;;;4.97;2.83;;;6.50;99.90;;;;;;5452310;26;20222;-74
2024/04/17 04:49:17;;;;;;;6.63;3.33;;;6.50;99.90;;;;;;5452770;26;20705;-74
2024/04/17 04:51:43;;;;;;;9.10;3.30;;;6.50;99.90;;;;;;5437997;26;20258;-73
2024/04/17 04:54:09;;;;;;;5.05;3.10;;;6.50;99.90;;;;;;5452106;26;20563;-76
2024/04/17 04:56:35;;;;;;;4.55;2.53;;;6.50;99.90;;;;;;5452735;26;20221;-75
2024/04/17 04:59:02;;;;;;;7.10;2.90;;;6.50;99.90;;;;;;5451566;26;20277;-75
2024/04/17 05:01:28;;;;;;;7.78;3.40;;;6.50;99.90;;;;;;5451645;26;20282;-75
2024/04/17 05:03:54;;;;;;;7.13;3.45;;;6.50;99.90;;;;;;5450025;26;20277;-75
2024/04/17 05:06:20;;;;;;;8.45;3.97;;;6.60;99.90;;;;;;5450707;26;20229;-75
2024/04/17 05:08:46;;;;;;;7.05;3.20;;;6.60;99.90;;;;;;5452240;26;20281;-75
2024/04/17 05:11:12;;;;;;;6.95;3.10;;;6.60;99.90;;;;;;5437424;26;20721;-75
2024/04/17 05:13:38;;;;;;;7.07;3.30;;;6.70;99.90;;;;;;5452489;26;20257;-75
2024/04/17 05:16:04;;;;;;;10.25;3.63;;;6.70;99.90;;;;;;5452001;26;20348;-75
2024/04/17 05:18:30;;;;;;;11.75;4.55;;;6.80;99.90;;;;;;5452303;26;20821;-75
2024/04/17 05:20:57;;;;;;;7.30;3.85;;;6.90;99.90;;;;;;5452112;26;20293;-75
2024/04/17 05:23:23;;;;;;;13.40;3.83;;;6.90;99.90;;;;;;5419895;26;20252;-75
2024/04/17 05:25:49;;;;;;;8.07;4.20;;;7.00;99.90;;;;;;5450324;26;20282;-75
2024/04/17 05:28:16;;;;;;;9.50;5.47;;;7.10;99.90;;;;;;5420284;26;20229;-75
2024/04/17 05:30:42;;;;;;;7.78;4.72;;;7.10;99.90;;;;;;5445809;26;20265;-75
2024/04/17 05:33:08;;;;;;;8.30;5.03;;;7.20;99.90;;;;;;5449829;26;20264;-75
2024/04/17 05:35:34;;;;;;;8.57;5.50;;;7.30;99.90;;;;;;5445650;26;20234;-75
2024/04/17 05:38:00;;;;;;;8.10;5.78;;;7.30;99.90;;;;;;5437097;26;20276;-75
2024/04/17 05:40:27;;;;;;;9.25;5.55;;;7.40;99.90;;;;;;5450096;26;20229;-75
2024/04/17 05:42:53;;;;;;;9.68;5.68;;;7.40;99.90;;;;;;5451798;26;20297;-75
2024/04/17 05:45:19;;;;;;;13.18;7.15;;;7.50;99.90;;;;;;5447296;26;20230;-75
2024/04/17 05:47:45;;;;;;;11.52;6.85;;;7.50;99.90;;;;;;5449997;26;20257;-74
2024/04/17 05:50:11;;;;;;;11.73;6.30;;;7.50;99.90;;;;;;5450092;26;20752;-74
2024/04/17 05:52:37;;;;;;;12.02;7.53;;;7.60;99.90;;;;;;5437826;26;20281;-75
2024/04/17 05:55:03;;;;;;;8.52;6.22;;;7.70;99.90;;;;;;5451505;26;20237;-74
2024/04/17 05:57:29;;;;;;;9.30;7.50;;;7.80;99.90;;;;;;5449497;26;20277;-75
2024/04/17 05:59:55;;;;;;;8.88;6.43;;;7.90;99.90;;;;;;5451323;26;20771;-74
2024/04/17 06:02:21;;;;;;;11.25;7.50;;;8.00;99.90;;;;;;5452138;26;20994;-75
2024/04/17 06:04:48;;;;;;;9.73;6.18;;;8.10;99.90;;;;;;5438097;26;20275;-75
2024/04/17 06:07:14;;;;;;;10.95;7.35;;;8.20;99.90;;;;;;5445143;26;20849;-74
2024/04/17 06:09:40;;;;;;;13.90;7.50;;;8.30;99.90;;;;;;5462284;26;20273;-75
2024/04/17 06:12:06;;;;;;;10.25;7.35;;;8.40;99.90;;;;;;5450250;26;20256;-74
2024/04/17 06:14:32;;;;;;;10.77;7.28;;;8.50;99.90;;;;;;5451435;26;20221;-75
2024/04/17 06:16:58;;;;;;;12.80;7.88;;;8.60;99.90;;;;;;5449972;26;20221;-75
2024/04/17 06:19:24;;;;;;;12.63;7.47;;;8.70;99.90;;;;;;5452128;26;20214;-75
2024/04/17 06:21:50;;;;;;;7.88;6.30;;;8.80;99.90;;;;;;5451958;26;20221;-75
2024/04/17 06:24:16;;;;;;;11.70;8.07;;;8.80;99.90;;;;;;5433170;26;20291;-75
2024/04/17 06:26:43;;;;;;;12.40;7.90;;;8.90;99.90;;;;;;5429356;26;20335;-74
2024/04/17 06:29:09;;;;;;;13.80;9.13;;;8.90;99.90;;;;;;5449360;26;20684;-74
2024/04/17 06:31:35;;;;;;;14.82;9.50;;;9.00;99.90;;;;;;5443488;26;20235;-74
2024/04/17 06:34:01;;;;;;;10.57;9.32;;;9.00;99.90;;;;;;5448499;26;20256;-74
2024/04/17 06:36:27;;;;;;;15.60;9.43;;;9.10;99.90;;;;;;5450984;26;20218;-73
2024/04/17 06:38:53;;;;;;;11.48;7.78;;;9.20;99.90;;;;;;5449030;26;20768;-72
2024/04/17 06:41:19;;;;;;;15.75;9.05;;;9.20;99.90;;;;;;5451479;26;20273;-75
2024/04/17 06:43:45;;;;;;;19.48;8.93;;;9.30;99.90;;;;;;5448285;26;20263;-74
2024/04/17 06:46:12;;;;;;;17.73;9.15;;;9.30;99.90;;;;;;5444015;26;20276;-73
2024/04/17 06:48:38;;;;;;;13.73;7.57;;;9.40;99.90;;;;;;5446192;26;20246;-73
2024/04/17 06:51:04;;;;;;;11.57;7.25;;;9.40;99.90;;;;;;5450656;26;20298;-74
2024/04/17 06:53:30;;;;;;;14.80;7.10;;;9.50;99.90;;;;;;5450071;26;20281;-74
2024/04/17 06:55:57;;;;;;;13.73;7.18;;;9.50;99.90;;;;;;5419091;26;20226;-74
2024/04/17 06:58:24;;;;;;;9.98;7.55;;;9.60;99.90;;;;;;5450851;26;20218;-74
2024/04/17 07:00:50;;;;;;;9.80;6.30;;;9.60;99.90;;;;;;5444155;26;20226;-74
2024/04/17 07:03:17;;;;;;;9.82;5.65;;;9.60;99.90;;;;;;5448691;26;20233;-74
2024/04/17 07:05:44;;;;;;;9.40;5.70;;;9.70;99.90;;;;;;5450514;26;20361;-73
2024/04/17 07:08:10;;;;;;;8.88;5.45;;;9.70;99.90;;;;;;5448336;26;20268;-74
2024/04/17 07:10:36;;;;;;;9.88;6.10;;;9.70;99.90;;;;;;5450779;26;20268;-74
2024/04/17 07:13:03;;;;;;;7.85;5.13;;;9.70;99.90;;;;;;5448120;26;20261;-78
2024/04/17 07:15:29;;;;;;;9.18;5.25;;;9.80;99.90;;;;;;5448413;26;20245;-78
2024/04/17 07:17:55;;;;;;;12.75;6.43;;;9.80;99.90;;;;;;5435418;26;20234;-78
2024/04/17 07:20:22;;;;;;;9.13;6.63;;;9.70;99.90;;;;;;5419139;26;20242;-73
2024/04/17 07:22:48;;;;;;;6.70;5.35;;;9.70;99.90;;;;;;5479226;26;20221;-74
2024/04/17 07:25:16;;;;;;;7.82;6.18;;;9.60;99.90;;;;;;5447268;26;20238;-74
2024/04/17 07:27:44;;;;;;;8.02;5.50;;;9.70;99.90;;;;;;5450404;26;20617;-73
2024/04/17 07:30:11;;;;;;;10.30;6.10;;;9.70;99.90;;;;;;5430820;26;20230;-73
2024/04/17 07:32:37;;;;;;;13.38;7.30;;;9.70;99.90;;;;;;5478728;26;20282;-74
2024/04/17 07:35:04;;;;;;;12.13;7.30;;;9.70;99.90;;;;;;5445692;26;20290;-74
2024/04/17 07:37:31;;;;;;;11.00;7.63;;;9.80;99.90;;;;;;5427553;26;20711;-74
2024/04/17 07:39:57;;;;;;;8.13;6.70;;;9.80;99.90;;;;;;5454914;26;20237;-73
2024/04/17 07:42:23;;;;;;;8.43;6.20;;;9.80;99.90;;;;;;5448787;26;20277;-73
2024/04/17 07:44:49;;;;;;;6.50;5.85;;;9.80;99.90;;;;;;5459380;26;20262;-74
2024/04/17 07:47:15;;;;;;;9.18;5.32;;;9.80;99.90;;;;;;5448140;26;20587;-74
2024/04/17 07:49:41;;;;;;;5.07;4.57;;;9.80;99.90;;;;;;5479048;26;20269;-73
2024/04/17 07:52:08;;;;;;;4.32;3.35;;;9.70;99.90;;;;;;5418479;26;20226;-74
2024/04/17 07:54:34;;;;;;;4.35;2.92;;;9.70;99.90;;;;;;5453595;26;20720;-74
2024/04/17 07:57:00;;;;;;;6.60;3.10;;;9.60;99.90;;;;;;5448421;26;20634;-72
2024/04/17 07:59:27;;;;;;;5.00;2.15;;;9.60;99.90;;;;;;5471578;26;20272;-73
2024/04/17 08:01:54;;;;;;;4.05;2.20;;;9.50;99.90;;;;;;5461317;26;20310;-73
2024/04/17 08:04:20;;;;;;;4.47;2.22;;;9.50;99.90;;;;;;5412529;26;20251;-73
2024/04/17 08:06:47;;;;;;;7.15;2.20;;;9.50;99.90;;;;;;5444632;26;20280;-73
2024/04/17 08:09:13;;;;;;;2.47;1.30;;;9.50;99.90;;;;;;5445392;26;20237;-72
2024/04/17 08:11:39;;;;;;;2.72;1.00;;;9.50;99.90;;;;;;5449801;26;20225;-72
2024/04/17 08:14:05;;;;;;;2.28;1.00;;;9.40;99.90;;;;;;5461922;26;20242;-72
2024/04/17 08:16:31;;;;;;;2.78;1.10;;;9.40;99.90;;;;;;5447370;26;20231;-73
2024/04/17 08:18:58;;;;;;;1.80;0.90;;;9.50;99.90;;;;;;5426594;26;20219;-72
2024/04/17 08:21:24;;;;;;;2.25;1.23;;;9.50;99.90;;;;;;5455921;26;20233;-72
2024/04/17 08:23:50;;;;;;;4.00;0.93;;;9.50;99.90;;;;;;5387600;26;20265;-73
2024/04/17 08:26:16;;;;;;;4.60;1.00;;;9.50;99.90;;;;;;5448828;26;20241;-72
2024/04/17 08:28:44;;;;;;;2.40;1.00;;;9.50;99.90;;;;;;5447816;26;20298;-72
2024/04/17 08:31:11;;;;;;;2.53;1.27;;;9.50;99.90;;;;;;5420247;26;20751;-73
2024/04/17 08:33:37;;;;;;;3.55;1.30;;;9.60;99.90;;;;;;5449105;26;20650;-73
2024/04/17 08:36:04;;;;;;;4.38;2.22;;;9.50;99.90;;;;;;5447115;26;20771;-74
2024/04/17 08:38:30;;;;;;;3.30;2.08;;;9.60;99.90;;;;;;5434982;26;20286;-73
2024/04/17 08:40:56;;;;;;;4.50;1.40;;;9.60;99.90;;;;;;5471048;26;20328;-73
2024/04/17 08:43:26;;;;;;;2.53;1.63;;;9.60;99.90;;;;;;5449042;26;20277;-73
2024/04/17 08:45:54;;;;;;;2.10;1.30;;;9.60;99.90;;;;;;5444486;26;20241;-73
2024/04/17 08:48:21;;;;;;;3.17;1.30;;;9.60;99.90;;;;;;5447203;26;20591;-72
2024/04/17 08:50:48;;;;;;;3.22;1.52;;;9.70;99.90;;;;;;5434385;26;20731;-73
2024/04/17 08:53:21;;;;;;;3.40;2.15;;;9.70;99.90;;;;;;5417231;26;20272;-73
2024/04/17 08:55:47;;;;;;;8.95;1.60;;;9.70;99.90;;;;;;5439254;26;20229;-73
2024/04/17 08:58:15;;;;;;;5.65;1.27;;;9.70;99.90;;;;;;5442557;26;20226;-73
2024/04/17 09:00:41;;;;;;;2.67;1.08;;;9.70;99.90;;;;;;5448971;26;20272;-74
2024/04/17 09:03:09;;;;;;;6.15;1.30;;;9.80;99.90;;;;;;5476825;26;20230;-73
2024/04/17 09:05:36;;;;;;;4.47;1.10;;;9.90;99.90;;;;;;5448591;26;20293;-73
2024/04/17 09:08:02;;;;;;;2.00;1.10;;;9.90;99.90;;;;;;5448600;26;20581;-74
2024/04/17 09:10:28;;;;;;;4.07;1.25;;;10.00;99.90;;;;;;5448620;26;20229;-74
2024/04/17 09:12:55;;;;;;;4.88;1.30;;;10.00;99.90;;;;;;5487109;26;20794;-74
2024/04/17 09:15:21;;;;;;;5.90;1.30;;;10.10;99.90;;;;;;5448440;26;20314;-74
2024/04/17 09:17:47;;;;;;;5.60;1.73;;;10.10;99.90;;;;;;5446082;26;20252;-74
2024/04/17 09:20:16;;;;;;;4.28;1.00;;;10.10;99.90;;;;;;5446480;26;21260;-73
2024/04/17 09:22:42;;;;;;;2.53;0.95;;;10.10;99.90;;;;;;5446290;26;20229;-74
2024/04/17 09:25:13;;;;;;;3.50;1.00;;;10.10;99.90;;;;;;5441447;26;20229;-73
2024/04/17 09:27:39;;;;;;;4.05;1.00;;;10.00;99.90;;;;;;5433985;26;20282;-73
2024/04/17 09:30:06;;;;;;;5.10;1.95;;;10.00;99.90;;;;;;5413680;26;20592;-73
2024/04/17 09:32:33;;;;;;;3.67;1.20;;;10.00;99.90;;;;;;5442666;26;20233;-73
2024/04/17 09:35:00;;;;;;;2.67;1.00;;;10.00;99.90;;;;;;5451326;26;20639;-73
2024/04/17 09:37:27;;;;;;;3.00;1.52;;;10.00;99.90;;;;;;5449564;26;20306;-73
2024/04/17 09:40:07;;;;;;;2.88;1.15;;;10.10;99.90;;;;;;5452832;26;20803;-73
2024/04/17 09:42:41;;;;;;;3.72;1.20;;;10.10;99.90;;;;;;5452324;26;20343;-75
2024/04/17 09:45:13;;;;;;;2.25;1.08;;;10.20;99.90;;;;;;5451245;26;20345;-72
2024/04/17 09:47:44;;;;;;;2.92;1.05;;;10.30;99.90;;;;;;5420104;26;20233;-73
2024/04/17 09:50:17;;;;;;;2.53;1.10;;;10.50;99.90;;;;;;5450024;26;20230;-73
2024/04/17 09:52:46;;;;;;;4.13;1.20;;;10.70;99.90;;;;;;5421507;26;20237;-74
2024/04/17 09:55:13;;;;;;;2.97;1.30;;;11.00;99.90;;;;;;5447382;26;20657;-74
2024/04/17 09:57:40;;;;;;;6.10;2.10;;;11.30;99.90;;;;;;5439756;26;20279;-74
2024/04/17 10:00:10;;;;;;;3.53;1.83;;;11.60;99.90;;;;;;5448384;26;20233;-74
2024/04/17 10:02:38;;;;;;;5.50;1.42;;;11.90;99.90;;;;;;5451867;26;20276;-73
2024/04/17 10:05:05;;;;;;;3.60;1.83;;;12.20;99.90;;;;;;5450873;26;20233;-73
2024/04/17 10:07:31;;;;;;;6.72;1.95;;;12.40;99.90;;;;;;5449825;26;20225;-73
2024/04/17 10:09:59;;;;;;;4.10;1.70;;;12.60;99.90;;;;;;5449719;26;20237;-73
2024/04/17 10:12:28;;;;;;;3.85;1.90;;;12.70;99.90;;;;;;5443961;26;20577;-73
2024/04/17 10:14:55;;;;;;;4.80;1.70;;;12.80;99.90;;;;;;5449039;26;20347;-73
2024/04/17 10:17:21;;;;;;;3.27;1.60;;;13.00;99.90;;;;;;5451361;26;20512;-73
2024/04/17 10:19:51;;;;;;;4.63;1.90;;;13.10;99.90;;;;;;5478697;26;21076;-72
2024/04/17 10:22:17;;;;;;;2.35;1.40;;;13.20;99.90;;;;;;5479801;26;20516;-72
2024/04/17 10:24:44;;;;;;;5.80;2.10;;;13.30;99.90;;;;;;5450082;26;20269;-72
2024/04/17 10:27:17;;;;;;;4.97;1.90;;;13.40;99.90;;;;;;5450833;26;20524;-72
2024/04/17 10:29:43;;;;;;;5.10;1.77;;;13.50;99.90;;;;;;5449215;26;20568;-73
2024/04/17 10:32:16;;;;;;;4.77;1.43;;;13.70;99.90;;;;;;5446041;26;20545;-73
2024/04/17 10:34:46;;;;;;;2.57;1.30;;;13.90;99.90;;;;;;5479285;26;20563;-73
2024/04/17 10:37:16;;;;;;;2.57;1.50;;;14.00;99.90;;;;;;5450723;26;20605;-73
2024/04/17 10:39:43;;;;;;;4.33;1.10;;;14.10;99.90;;;;;;5451152;26;20927;-73
2024/04/17 10:42:15;;;;;;;5.10;2.50;;;14.30;99.90;;;;;;5478966;26;20617;-73
2024/04/17 10:44:48;;;;;;;8.77;2.20;;;14.50;99.90;;;;;;5449018;26;20652;-73
2024/04/17 10:47:28;;;;;;;4.93;1.47;;;14.60;99.90;;;;;;5444545;26;20555;-74
2024/04/17 10:49:58;;;;;;;3.70;2.00;;;14.50;99.90;;;;;;5450479;26;20572;-73
2024/04/17 10:52:25;;;;;;;1.80;1.00;;;14.40;99.90;;;;;;5419214;26;20551;-74
2024/04/17 10:54:55;;;;;;;3.57;1.07;;;14.30;99.90;;;;;;5449833;26;21011;-76
2024/04/17 10:57:21;;;;;;;6.13;1.00;;;14.30;99.90;;;;;;5450044;26;20543;-73
2024/04/17 10:59:49;;;;;;;4.20;1.10;;;14.30;99.90;;;;;;5450855;26;20603;-72
2024/04/17 11:02:16;;;;;;;4.23;1.17;;;14.30;99.90;;;;;;5450722;26;20636;-73
2024/04/17 11:04:46;;;;;;;3.50;1.10;;;14.40;99.90;;;;;;5450062;26;20620;-74
2024/04/17 11:07:13;;;;;;;4.97;1.40;;;14.50;99.90;;;;;;5448445;26;20565;-73
2024/04/17 11:09:57;;;;;;;3.37;1.40;;;14.60;99.90;;;;;;5450694;26;20607;-73
2024/04/17 11:12:24;;;;;;;3.87;1.00;;;14.80;99.90;;;;;;5450686;26;20576;-73
2024/04/17 11:14:59;;;;;;;5.77;2.00;;;15.10;99.90;;;;;;5449922;26;20563;-73
2024/04/17 11:17:25;;;;;;;4.77;2.00;;;15.30;99.90;;;;;;5448575;26;20551;-72
2024/04/17 11:19:52;;;;;;;3.90;1.33;;;15.70;99.90;;;;;;5450390;26;20649;-73
2024/04/17 11:22:18;;;;;;;3.60;1.37;;;16.20;99.90;;;;;;5435609;26;21134;-73
2024/04/17 11:24:46;;;;;;;3.50;1.23;;;16.60;99.90;;;;;;5448245;26;20583;-72
2024/04/17 11:27:16;;;;;;;4.03;1.43;;;17.00;99.90;;;;;;5448096;26;20595;-75
2024/04/17 11:29:48;;;;;;;3.30;1.10;;;17.40;99.90;;;;;;5429513;26;20544;-74
2024/04/17 11:32:15;;;;;;;2.43;1.23;;;17.80;99.90;;;;;;5430784;26;20517;-73
2024/04/17 11:34:41;;;;;;;3.60;1.47;;;18.10;99.90;;;;;;5448308;26;20580;-74
2024/04/17 11:37:08;;;;;;;3.53;1.20;;;18.30;99.90;;;;;;5450036;26;20586;-74
2024/04/17 11:39:36;;;;;;;11.10;3.40;;;18.50;99.90;;;;;;5448179;26;20620;-74
2024/04/17 11:42:03;;;;;;;4.17;1.60;;;18.70;99.90;;;;;;5444393;26;20872;-73
2024/04/17 11:44:36;;;;;;;4.43;1.70;;;19.00;99.90;;;;;;5447988;26;20624;-73
2024/04/17 11:47:03;;;;;;;4.50;1.90;;;19.10;99.90;;;;;;5446293;26;20643;-73
2024/04/17 11:49:29;;;;;;;3.70;1.40;;;19.20;99.90;;;;;;5451522;26;20617;-74
2024/04/17 11:51:55;;;;;;;4.40;1.60;;;19.20;99.90;;;;;;5454354;26;20617;-73
2024/04/17 11:54:22;;;;;;;2.73;1.20;;;19.00;99.90;;;;;;5447479;26;21175;-73
2024/04/17 11:56:49;;;;;;;8.70;3.40;;;18.80;99.90;;;;;;5448319;26;21128;-73
2024/04/17 11:59:15;;;;;;;3.50;1.40;;;18.50;99.90;;;;;;5445028;26;20605;-72
2024/04/17 12:01:42;;;;;;;3.27;1.10;;;18.20;99.90;;;;;;5450010;26;20984;-74
2024/04/17 12:04:08;;;;;;;5.00;1.60;;;17.90;99.90;;;;;;5447605;26;20583;-74
2024/04/17 12:06:34;;;;;;;5.57;2.20;;;17.60;99.90;;;;;;5449482;26;20524;-72
2024/04/17 12:09:01;;;;;;;3.50;1.73;;;17.40;99.90;;;;;;5447621;26;20591;-72
2024/04/17 12:11:27;;;;;;;6.67;1.80;;;17.10;99.90;;;;;;5448910;26;20583;-72
2024/04/17 12:13:53;;;;;;;6.23;2.30;;;16.90;99.90;;;;;;5449320;26;21297;-72
2024/04/17 12:16:19;;;;;;;4.30;1.57;;;16.60;99.90;;;;;;5447235;26;20604;-73
2024/04/17 12:18:45;;;;;;;5.00;1.33;;;16.40;99.90;;;;;;5438926;26;20927;-71
2024/04/17 12:21:11;;;;;;;5.33;1.50;;;16.30;99.90;;;;;;5441647;26;21465;-73
2024/04/17 12:23:38;;;;;;;4.50;1.10;;;16.30;99.90;;;;;;5429916;26;20959;-72
2024/04/17 12:28:50;;;;;;;5.30;1.00;;;16.70;99.90;;;;;;5441485;26;20553;-73
2024/04/17 12:31:16;;;;;;;4.23;1.43;;;16.90;99.90;;;;;;5448227;26;20580;-73
2024/04/17 12:33:42;;;;;;;5.07;2.13;;;17.00;99.90;;;;;;5450117;26;20571;-73
2024/04/17 12:36:08;;;;;;;5.60;1.63;;;17.00;99.90;;;;;;5443023;26;20545;-73
2024/04/17 12:38:35;;;;;;;6.63;2.93;;;16.80;99.90;;;;;;5446431;26;20696;-73
2024/04/17 12:41:01;;;;;;;6.33;3.33;;;16.60;99.90;;;;;;5460231;26;20875;-74
2024/04/17 12:43:27;;;;;;;5.13;2.60;;;16.50;99.90;;;;;;5416890;26;20609;-73
2024/04/17 12:45:53;;;;;;;5.77;2.60;;;16.30;99.90;;;;;;5456897;26;21126;-74
2024/04/17 12:48:19;;;;;;;6.17;3.37;;;16.10;99.90;;;;;;5448872;26;20614;-74
2024/04/17 12:50:48;;;;;;;5.80;3.27;;;15.90;99.90;;;;;;5447241;26;20547;-73
2024/04/17 12:53:15;;;;;;;4.47;2.47;;;15.70;99.90;;;;;;5428090;26;20599;-74